sensor_id;sensor_type;location;lat;lon;timestamp;pressure;altitude;pressure_sealevel;temperature;humidity
1776;BME280;885;42.626;23.200;2023-04-23T00:00:40;167037.19;;;6.96;100.00
1776;BME280;885;42.626;23.200;2023-04-23T00:03:08;167045.47;;;6.99;100.00
1776;BME280;885;42.626;23.200;2023-04-23T00:05:37;167027.56;;;6.92;100.00
1776;BME280;885;42.626;23.200;2023-04-23T00:08:07;167006.97;;;6.85;100.00
1776;BME280;885;42.626;23.200;2023-04-23T00:10:37;167013.78;;;6.87;100.00
1776;BME280;885;42.626;23.200;2023-04-23T00:13:04;167031.69;;;6.94;100.00
1776;BME280;885;42.626;23.200;2023-04-23T00:15:32;167048.19;;;7.00;100.00
1776;BME280;885;42.626;23.200;2023-04-23T00:17:59;167006.97;;;6.85;100.00
1776;BME280;885;42.626;23.200;2023-04-23T00:20:25;166958.81;;;6.67;100.00
1776;BME280;885;42.626;23.200;2023-04-23T00:22:52;166976.69;;;6.74;100.00
1776;BME280;885;42.626;23.200;2023-04-23T00:25:19;166980.81;;;6.75;100.00
1776;BME280;885;42.626;23.200;2023-04-23T00:27:47;166989.09;;;6.78;100.00
1776;BME280;885;42.626;23.200;2023-04-23T00:30:14;166998.69;;;6.82;100.00
1776;BME280;885;42.626;23.200;2023-04-23T00:32:43;166976.69;;;6.74;100.00
1776;BME280;885;42.626;23.200;2023-04-23T00:35:10;166989.09;;;6.78;100.00
1776;BME280;885;42.626;23.200;2023-04-23T00:37:37;166975.31;;;6.73;100.00
1776;BME280;885;42.626;23.200;2023-04-23T00:40:04;166962.91;;;6.69;100.00
1776;BME280;885;42.626;23.200;2023-04-23T00:42:32;166982.19;;;6.76;100.00
1776;BME280;885;42.626;23.200;2023-04-23T00:45:00;166976.69;;;6.74;100.00
1776;BME280;885;42.626;23.200;2023-04-23T00:47:28;166976.69;;;6.74;100.00
1776;BME280;885;42.626;23.200;2023-04-23T00:49:55;166943.72;;;6.62;100.00
1776;BME280;885;42.626;23.200;2023-04-23T00:52:22;166939.53;;;6.60;100.00
1776;BME280;885;42.626;23.200;2023-04-23T00:54:48;166947.81;;;6.63;100.00
1776;BME280;885;42.626;23.200;2023-04-23T00:57:15;166946.44;;;6.63;100.00
1776;BME280;885;42.626;23.200;2023-04-23T00:59:42;166956.03;;;6.66;100.00
1776;BME280;885;42.626;23.200;2023-04-23T01:02:11;166946.44;;;6.63;100.00
1776;BME280;885;42.626;23.200;2023-04-23T01:04:40;166935.44;;;6.59;100.00
1776;BME280;885;42.626;23.200;2023-04-23T01:07:09;166907.94;;;6.49;100.00
1776;BME280;885;42.626;23.200;2023-04-23T01:09:35;166899.69;;;6.46;100.00
1776;BME280;885;42.626;23.200;2023-04-23T01:12:04;166887.28;;;6.41;100.00
1776;BME280;885;42.626;23.200;2023-04-23T01:14:31;166912.06;;;6.50;100.00
1776;BME280;885;42.626;23.200;2023-04-23T01:16:58;166949.22;;;6.64;100.00
1776;BME280;885;42.626;23.200;2023-04-23T01:19:26;166954.69;;;6.66;100.00
1776;BME280;885;42.626;23.200;2023-04-23T01:21:53;166939.53;;;6.60;100.00
1776;BME280;885;42.626;23.200;2023-04-23T01:24:25;166929.94;;;6.57;100.00
1776;BME280;885;42.626;23.200;2023-04-23T01:26:53;166913.44;;;6.51;100.00
1776;BME280;885;42.626;23.200;2023-04-23T01:29:20;166892.78;;;6.43;100.00
1776;BME280;885;42.626;23.200;2023-04-23T01:31:48;166877.69;;;6.37;100.00
1776;BME280;885;42.626;23.200;2023-04-23T01:34:15;166862.59;;;6.32;100.00
1776;BME280;885;42.626;23.200;2023-04-23T01:36:42;166828.22;;;6.19;100.00
1776;BME280;885;42.626;23.200;2023-04-23T01:39:10;166850.22;;;6.27;100.00
1776;BME280;885;42.626;23.200;2023-04-23T01:41:38;166841.94;;;6.24;100.00
1776;BME280;885;42.626;23.200;2023-04-23T01:44:05;166872.19;;;6.35;100.00
1776;BME280;885;42.626;23.200;2023-04-23T01:46:32;166877.69;;;6.37;100.00
1776;BME280;885;42.626;23.200;2023-04-23T01:48:59;166868.06;;;6.34;100.00
1776;BME280;885;42.626;23.200;2023-04-23T01:51:26;166837.81;;;6.23;100.00
1776;BME280;885;42.626;23.200;2023-04-23T01:53:54;166850.22;;;6.27;100.00
1776;BME280;885;42.626;23.200;2023-04-23T01:56:23;166852.94;;;6.28;100.00
1776;BME280;885;42.626;23.200;2023-04-23T01:58:52;166837.81;;;6.23;100.00
1776;BME280;885;42.626;23.200;2023-04-23T02:01:19;166837.81;;;6.23;100.00
1776;BME280;885;42.626;23.200;2023-04-23T02:03:48;166829.59;;;6.20;100.00
1776;BME280;885;42.626;23.200;2023-04-23T02:06:15;166828.22;;;6.19;100.00
1776;BME280;885;42.626;23.200;2023-04-23T02:08:42;166839.22;;;6.23;100.00
1776;BME280;885;42.626;23.200;2023-04-23T02:11:09;166814.44;;;6.14;100.00
1776;BME280;885;42.626;23.200;2023-04-23T02:13:36;166803.47;;;6.10;100.00
1776;BME280;885;42.626;23.200;2023-04-23T02:16:04;166815.84;;;6.15;100.00
1776;BME280;885;42.626;23.200;2023-04-23T02:18:31;166826.84;;;6.19;100.00
1776;BME280;885;42.626;23.200;2023-04-23T02:20:58;166835.09;;;6.22;100.00
1776;BME280;885;42.626;23.200;2023-04-23T02:23:26;166841.94;;;6.24;100.00
1776;BME280;885;42.626;23.200;2023-04-23T02:25:52;166836.44;;;6.22;100.00
1776;BME280;885;42.626;23.200;2023-04-23T02:28:19;166832.31;;;6.21;100.00
1776;BME280;885;42.626;23.200;2023-04-23T02:30:46;166833.72;;;6.21;100.00
1776;BME280;885;42.626;23.200;2023-04-23T02:33:14;166830.94;;;6.20;100.00
1776;BME280;885;42.626;23.200;2023-04-23T02:35:41;166833.72;;;6.21;100.00
1776;BME280;885;42.626;23.200;2023-04-23T02:38:08;166819.94;;;6.16;100.00
1776;BME280;885;42.626;23.200;2023-04-23T02:40:34;166802.06;;;6.10;100.00
1776;BME280;885;42.626;23.200;2023-04-23T02:43:01;166828.22;;;6.19;100.00
1776;BME280;885;42.626;23.200;2023-04-23T02:45:28;166828.22;;;6.19;100.00
1776;BME280;885;42.626;23.200;2023-04-23T02:47:54;166830.94;;;6.20;100.00
1776;BME280;885;42.626;23.200;2023-04-23T02:50:23;166833.72;;;6.21;100.00
1776;BME280;885;42.626;23.200;2023-04-23T02:52:49;166839.22;;;6.23;100.00
1776;BME280;885;42.626;23.200;2023-04-23T02:55:16;166785.59;;;6.04;100.00
1776;BME280;885;42.626;23.200;2023-04-23T02:57:44;166813.06;;;6.14;100.00
1776;BME280;885;42.626;23.200;2023-04-23T03:00:11;166811.72;;;6.13;100.00
1776;BME280;885;42.626;23.200;2023-04-23T03:02:39;166817.22;;;6.15;100.00
1776;BME280;885;42.626;23.200;2023-04-23T03:05:06;166806.22;;;6.11;100.00
1776;BME280;885;42.626;23.200;2023-04-23T03:07:35;166804.84;;;6.11;100.00
1776;BME280;885;42.626;23.200;2023-04-23T03:10:01;166795.25;;;6.07;100.00
1776;BME280;885;42.626;23.200;2023-04-23T03:12:28;166807.56;;;6.12;100.00
1776;BME280;885;42.626;23.200;2023-04-23T03:14:55;166740.25;;;5.87;100.00
1776;BME280;885;42.626;23.200;2023-04-23T03:17:22;166745.75;;;5.89;100.00
1776;BME280;885;42.626;23.200;2023-04-23T03:19:48;166743.00;;;5.88;100.00
1776;BME280;885;42.626;23.200;2023-04-23T03:22:15;166747.13;;;5.90;100.00
1776;BME280;885;42.626;23.200;2023-04-23T03:24:43;166736.13;;;5.86;100.00
1776;BME280;885;42.626;23.200;2023-04-23T03:27:10;166740.25;;;5.87;100.00
1776;BME280;885;42.626;23.200;2023-04-23T03:29:36;166734.75;;;5.85;100.00
1776;BME280;885;42.626;23.200;2023-04-23T03:32:03;166707.22;;;5.75;100.00
1776;BME280;885;42.626;23.200;2023-04-23T03:34:33;166712.72;;;5.77;100.00
1776;BME280;885;42.626;23.200;2023-04-23T03:36:59;166732.03;;;5.84;100.00
1776;BME280;885;42.626;23.200;2023-04-23T03:39:26;166749.84;;;5.91;100.00
1776;BME280;885;42.626;23.200;2023-04-23T03:41:54;166778.72;;;6.01;100.00
1776;BME280;885;42.626;23.200;2023-04-23T03:44:22;166792.47;;;6.06;100.00
1776;BME280;885;42.626;23.200;2023-04-23T03:46:49;166821.34;;;6.17;100.00
1776;BME280;885;42.626;23.200;2023-04-23T03:49:16;166819.94;;;6.16;100.00
1776;BME280;885;42.626;23.200;2023-04-23T03:51:43;166830.94;;;6.20;100.00
1776;BME280;885;42.626;23.200;2023-04-23T03:54:10;166833.72;;;6.21;100.00
1776;BME280;885;42.626;23.200;2023-04-23T03:56:36;166839.22;;;6.23;100.00
1776;BME280;885;42.626;23.200;2023-04-23T03:59:04;166789.69;;;6.05;100.00
1776;BME280;885;42.626;23.200;2023-04-23T04:01:31;166792.47;;;6.06;100.00
1776;BME280;885;42.626;23.200;2023-04-23T04:04:00;166776.00;;;6.00;100.00
1776;BME280;885;42.626;23.200;2023-04-23T04:06:27;166806.22;;;6.11;100.00
1776;BME280;885;42.626;23.200;2023-04-23T04:08:53;166822.72;;;6.17;100.00
1776;BME280;885;42.626;23.200;2023-04-23T04:11:20;166822.72;;;6.17;100.00
1776;BME280;885;42.626;23.200;2023-04-23T04:13:47;166837.81;;;6.23;100.00
1776;BME280;885;42.626;23.200;2023-04-23T04:16:15;166861.19;;;6.31;100.00
1776;BME280;885;42.626;23.200;2023-04-23T04:18:41;166883.19;;;6.39;100.00
1776;BME280;885;42.626;23.200;2023-04-23T04:21:08;166896.94;;;6.45;100.00
1776;BME280;885;42.626;23.200;2023-04-23T04:23:35;166902.44;;;6.47;100.00
1776;BME280;885;42.626;23.200;2023-04-23T04:26:02;166921.66;;;6.54;100.00
1776;BME280;885;42.626;23.200;2023-04-23T04:28:29;166924.44;;;6.55;100.00
1776;BME280;885;42.626;23.200;2023-04-23T04:31:00;166931.31;;;6.57;100.00
1776;BME280;885;42.626;23.200;2023-04-23T04:33:28;166924.44;;;6.55;100.00
1776;BME280;885;42.626;23.200;2023-04-23T04:35:56;166935.44;;;6.59;100.00
1776;BME280;885;42.626;23.200;2023-04-23T04:38:23;166946.44;;;6.63;100.00
1776;BME280;885;42.626;23.200;2023-04-23T04:40:53;166961.53;;;6.68;100.00
1776;BME280;885;42.626;23.200;2023-04-23T04:43:20;166982.19;;;6.76;100.00
1776;BME280;885;42.626;23.200;2023-04-23T04:45:46;167006.97;;;6.85;100.00
1776;BME280;885;42.626;23.200;2023-04-23T04:48:13;167042.69;;;6.98;100.00
1776;BME280;885;42.626;23.200;2023-04-23T04:50:41;167093.56;;;7.16;100.00
1776;BME280;885;42.626;23.200;2023-04-23T04:53:08;167082.56;;;7.12;100.00
1776;BME280;885;42.626;23.200;2023-04-23T04:55:35;167100.47;;;7.19;100.00
1776;BME280;885;42.626;23.200;2023-04-23T04:58:01;167136.25;;;7.32;100.00
1776;BME280;885;42.626;23.200;2023-04-23T05:00:29;167136.25;;;7.32;100.00
1776;BME280;885;42.626;23.200;2023-04-23T05:02:56;167158.25;;;7.40;100.00
1776;BME280;885;42.626;23.200;2023-04-23T05:05:24;167199.53;;;7.55;100.00
1776;BME280;885;42.626;23.200;2023-04-23T05:07:53;167217.41;;;7.62;100.00
1776;BME280;885;42.626;23.200;2023-04-23T05:10:23;167235.31;;;7.68;100.00
1776;BME280;885;42.626;23.200;2023-04-23T05:12:50;167180.25;;;7.48;99.78
1776;BME280;885;42.626;23.200;2023-04-23T05:15:17;167246.31;;;7.72;100.00
1776;BME280;885;42.626;23.200;2023-04-23T05:17:43;167301.34;;;7.92;99.93
1776;BME280;885;42.626;23.200;2023-04-23T05:20:10;167339.88;;;8.07;99.58
1776;BME280;885;42.626;23.200;2023-04-23T05:22:37;167345.38;;;8.09;96.63
1776;BME280;885;42.626;23.200;2023-04-23T05:25:07;167322.03;;;8.00;97.53
1776;BME280;885;42.626;23.200;2023-04-23T05:27:34;167326.16;;;8.01;97.63
1776;BME280;885;42.626;23.200;2023-04-23T05:30:01;167396.41;;;8.27;97.29
1776;BME280;885;42.626;23.200;2023-04-23T05:32:28;167557.50;;;8.86;95.78
1776;BME280;885;42.626;23.200;2023-04-23T05:34:55;167736.59;;;9.51;93.75
1776;BME280;885;42.626;23.200;2023-04-23T05:37:21;167884.13;;;10.05;89.92
1776;BME280;885;42.626;23.200;2023-04-23T05:39:48;167893.75;;;10.09;84.98
1776;BME280;885;42.626;23.200;2023-04-23T05:42:16;167944.84;;;10.27;83.26
1776;BME280;885;42.626;23.200;2023-04-23T05:44:43;168121.34;;;10.92;82.91
1776;BME280;885;42.626;23.200;2023-04-23T05:47:13;168292.44;;;11.54;77.73
1776;BME280;885;42.626;23.200;2023-04-23T05:49:40;168407.06;;;11.96;75.81
1776;BME280;885;42.626;23.200;2023-04-23T05:52:07;168501.00;;;12.30;73.85
1776;BME280;885;42.626;23.200;2023-04-23T05:54:33;168672.25;;;12.93;71.98
1776;BME280;885;42.626;23.200;2023-04-23T05:57:00;168813.28;;;13.44;69.69
1776;BME280;885;42.626;23.200;2023-04-23T05:59:28;168867.16;;;13.64;67.96
1776;BME280;885;42.626;23.200;2023-04-23T06:01:55;168829.69;;;13.51;67.34
1776;BME280;885;42.626;23.200;2023-04-23T06:04:22;168829.69;;;13.51;67.82
1776;BME280;885;42.626;23.200;2023-04-23T06:06:49;168418.13;;;13.37;69.37
1776;BME280;885;42.626;23.200;2023-04-23T06:09:16;167832.03;;;12.59;71.23
1776;BME280;885;42.626;23.200;2023-04-23T06:11:42;167855.41;;;12.67;73.02
1776;BME280;885;42.626;23.200;2023-04-23T06:14:09;168440.19;;;13.45;71.48
1776;BME280;885;42.626;23.200;2023-04-23T06:16:37;168509.13;;;13.70;69.69
1776;BME280;885;42.626;23.200;2023-04-23T06:19:04;168158.06;;;13.78;68.22
1776;BME280;885;42.626;23.200;2023-04-23T06:21:31;167752.06;;;13.66;69.10
1776;BME280;885;42.626;23.200;2023-04-23T06:23:57;167275.03;;;13.28;70.56
1776;BME280;885;42.626;23.200;2023-04-23T06:26:24;167272.28;;;13.27;69.26
1776;BME280;885;42.626;23.200;2023-04-23T06:28:51;167346.22;;;13.54;69.57
1776;BME280;885;42.626;23.200;2023-04-23T06:31:18;167368.13;;;13.62;70.23
1776;BME280;885;42.626;23.200;2023-04-23T06:33:46;167849.53;;;14.02;68.92
1776;BME280;885;42.626;23.200;2023-04-23T06:36:12;167955.38;;;14.41;67.99
1776;BME280;885;42.626;23.200;2023-04-23T06:38:39;167562.72;;;14.33;69.20
1776;BME280;885;42.626;23.200;2023-04-23T06:41:06;167144.19;;;14.17;68.54
1776;BME280;885;42.626;23.200;2023-04-23T06:43:33;167561.34;;;14.33;70.62
1776;BME280;885;42.626;23.200;2023-04-23T06:45:59;167594.28;;;14.45;68.57
1776;BME280;885;42.626;23.200;2023-04-23T06:48:26;166754.59;;;14.11;68.15
1776;BME280;885;42.626;23.200;2023-04-23T06:50:54;167186.66;;;14.32;68.72
1776;BME280;885;42.626;23.200;2023-04-23T06:53:21;168249.44;;;15.48;68.39
1776;BME280;885;42.626;23.200;2023-04-23T06:55:48;169470.44;;;17.20;61.60
1776;BME280;885;42.626;23.200;2023-04-23T06:58:16;169465.16;;;18.55;55.93
1776;BME280;885;42.626;23.200;2023-04-23T07:00:42;169036.13;;;19.73;53.58
1776;BME280;885;42.626;23.200;2023-04-23T07:03:10;167393.38;;;20.63;48.64
1776;BME280;885;42.626;23.200;2023-04-23T07:05:36;164960.06;;;21.40;47.36
1776;BME280;885;42.626;23.200;2023-04-23T07:08:05;161132.50;;;21.19;46.10
1776;BME280;885;42.626;23.200;2023-04-23T07:10:31;157142.72;;;20.31;48.09
1776;BME280;885;42.626;23.200;2023-04-23T07:12:58;153029.59;;;18.88;50.56
1776;BME280;885;42.626;23.200;2023-04-23T07:15:25;150855.63;;;17.65;56.40
1776;BME280;885;42.626;23.200;2023-04-23T07:17:51;150410.88;;;17.35;57.94
1776;BME280;885;42.626;23.200;2023-04-23T07:20:18;147928.97;;;16.35;59.92
1776;BME280;885;42.626;23.200;2023-04-23T07:22:45;147427.97;;;15.81;62.82
1776;BME280;885;42.626;23.200;2023-04-23T07:25:13;147352.50;;;15.49;65.18
1776;BME280;885;42.626;23.200;2023-04-23T07:27:40;146500.72;;;15.04;64.93
1776;BME280;885;42.626;23.200;2023-04-23T07:30:07;148053.69;;;15.31;65.90
1776;BME280;885;42.626;23.200;2023-04-23T07:32:34;148033.25;;;15.23;66.76
1776;BME280;885;42.626;23.200;2023-04-23T07:35:01;146058.78;;;14.74;64.94
1776;BME280;885;42.626;23.200;2023-04-23T07:37:29;145644.41;;;14.56;65.43
1776;BME280;885;42.626;23.200;2023-04-23T07:39:56;143918.31;;;13.53;71.20
1776;BME280;885;42.626;23.200;2023-04-23T07:42:24;147004.06;;;14.03;71.44
1776;BME280;885;42.626;23.200;2023-04-23T07:44:51;147472.63;;;14.44;67.82
1776;BME280;885;42.626;23.200;2023-04-23T07:47:17;147539.84;;;14.72;66.66
1776;BME280;885;42.626;23.200;2023-04-23T07:49:44;145943.53;;;14.25;66.56
1776;BME280;885;42.626;23.200;2023-04-23T07:52:11;145524.81;;;14.05;68.31
1776;BME280;885;42.626;23.200;2023-04-23T07:54:37;147482.22;;;14.48;69.10
1776;BME280;885;42.626;23.200;2023-04-23T07:57:04;146000.56;;;14.50;64.60
1776;BME280;885;42.626;23.200;2023-04-23T07:59:32;147162.06;;;14.69;65.23
1776;BME280;885;42.626;23.200;2023-04-23T08:01:59;147158.47;;;14.68;66.05
1776;BME280;885;42.626;23.200;2023-04-23T08:04:26;147191.97;;;14.82;65.31
1776;BME280;885;42.626;23.200;2023-04-23T08:06:52;149175.41;;;15.33;65.62
1776;BME280;885;42.626;23.200;2023-04-23T08:09:19;148041.69;;;15.26;62.77
1776;BME280;885;42.626;23.200;2023-04-23T08:11:46;148766.78;;;15.18;66.28
1776;BME280;885;42.626;23.200;2023-04-23T08:14:13;146043.34;;;14.68;63.48
1776;BME280;885;42.626;23.200;2023-04-23T08:16:42;144076.41;;;14.21;64.96
1776;BME280;885;42.626;23.200;2023-04-23T08:19:08;146438.81;;;14.78;64.81
1776;BME280;885;42.626;23.200;2023-04-23T08:21:36;148715.97;;;14.97;69.48
1776;BME280;885;42.626;23.200;2023-04-23T08:24:03;149872.59;;;15.13;69.96
1776;BME280;885;42.626;23.200;2023-04-23T08:26:31;150241.22;;;15.12;69.33
1776;BME280;885;42.626;23.200;2023-04-23T08:28:57;151348.47;;;15.08;72.59
1776;BME280;885;42.626;23.200;2023-04-23T08:31:25;152955.28;;;15.55;72.31
1776;BME280;885;42.626;23.200;2023-04-23T08:33:53;153059.91;;;15.98;68.37
1776;BME280;885;42.626;23.200;2023-04-23T08:36:20;153115.94;;;16.20;66.54
1776;BME280;885;42.626;23.200;2023-04-23T08:38:47;153918.75;;;16.43;66.01
1776;BME280;885;42.626;23.200;2023-04-23T08:41:14;154700.97;;;16.57;67.53
1776;BME280;885;42.626;23.200;2023-04-23T08:43:46;154414.06;;;16.92;64.51
1776;BME280;885;42.626;23.200;2023-04-23T08:46:17;154510.72;;;17.30;60.89
1776;BME280;885;42.626;23.200;2023-04-23T08:48:44;154907.44;;;17.39;62.12
1776;BME280;885;42.626;23.200;2023-04-23T08:51:18;155305.50;;;17.49;62.42
1776;BME280;885;42.626;23.200;2023-04-23T08:53:49;155757.03;;;17.80;61.22
1776;BME280;885;42.626;23.200;2023-04-23T08:56:16;155817.75;;;18.04;60.09
1776;BME280;885;42.626;23.200;2023-04-23T08:58:44;155439.44;;;18.02;59.53
1776;BME280;885;42.626;23.200;2023-04-23T09:01:12;155071.22;;;18.05;59.32
1776;BME280;885;42.626;23.200;2023-04-23T09:03:39;154699.22;;;18.06;58.55
1776;BME280;885;42.626;23.200;2023-04-23T09:06:08;154661.56;;;17.91;60.24
1776;BME280;885;42.626;23.200;2023-04-23T09:08:37;154670.34;;;17.94;60.33
1776;BME280;885;42.626;23.200;2023-04-23T09:11:04;154699.22;;;18.06;60.08
1776;BME280;885;42.626;23.200;2023-04-23T09:13:32;154744.50;;;18.24;59.82
1776;BME280;885;42.626;23.200;2023-04-23T09:16:00;154422.63;;;18.45;57.54
1776;BME280;885;42.626;23.200;2023-04-23T09:18:27;154450.16;;;18.56;57.28
1776;BME280;885;42.626;23.200;2023-04-23T09:20:54;154428.84;;;18.48;58.27
1776;BME280;885;42.626;23.200;2023-04-23T09:23:22;154010.38;;;18.30;58.96
1776;BME280;885;42.626;23.200;2023-04-23T09:25:50;153653.25;;;18.37;57.12
1776;BME280;885;42.626;23.200;2023-04-23T09:28:17;153655.75;;;18.38;58.20
1776;BME280;885;42.626;23.200;2023-04-23T09:30:44;151677.34;;;17.95;58.05
1776;BME280;885;42.626;23.200;2023-04-23T09:33:11;151293.41;;;17.91;57.27
1776;BME280;885;42.626;23.200;2023-04-23T09:35:38;150545.28;;;17.91;57.16
1776;BME280;885;42.626;23.200;2023-04-23T09:38:06;151342.50;;;18.11;56.81
1776;BME280;885;42.626;23.200;2023-04-23T09:40:35;152157.69;;;18.38;56.36
1776;BME280;885;42.626;23.200;2023-04-23T09:43:04;151811.59;;;18.50;55.16
1776;BME280;885;42.626;23.200;2023-04-23T09:45:31;151024.69;;;18.34;55.59
1776;BME280;885;42.626;23.200;2023-04-23T09:47:59;151870.75;;;18.74;54.96
1776;BME280;885;42.626;23.200;2023-04-23T09:50:33;152705.53;;;19.09;54.59
1776;BME280;885;42.626;23.200;2023-04-23T09:53:01;152392.44;;;19.34;52.42
1776;BME280;885;42.626;23.200;2023-04-23T09:55:29;152765.00;;;19.33;53.92
1776;BME280;885;42.626;23.200;2023-04-23T09:58:00;153214.66;;;19.63;53.26
1776;BME280;885;42.626;23.200;2023-04-23T10:00:33;153280.53;;;19.90;51.05
1776;BME280;885;42.626;23.200;2023-04-23T10:03:01;152960.84;;;20.12;50.01
1776;BME280;885;42.626;23.200;2023-04-23T10:05:27;153348.81;;;20.17;51.85
1776;BME280;885;42.626;23.200;2023-04-23T10:07:55;152576.59;;;20.09;51.29
1776;BME280;885;42.626;23.200;2023-04-23T10:10:23;152572.91;;;20.07;51.99
1776;BME280;885;42.626;23.200;2023-04-23T10:12:52;151421.97;;;19.97;50.25
1776;BME280;885;42.626;23.200;2023-04-23T10:15:19;150600.59;;;19.68;51.86
1776;BME280;885;42.626;23.200;2023-04-23T10:17:47;151809.66;;;20.02;51.59
1776;BME280;885;42.626;23.200;2023-04-23T10:20:15;150678.69;;;20.00;50.82
1776;BME280;885;42.626;23.200;2023-04-23T10:22:43;151517.72;;;20.36;49.62
1776;BME280;885;42.626;23.200;2023-04-23T10:25:11;151181.31;;;20.52;49.50
1776;BME280;885;42.626;23.200;2023-04-23T10:27:39;148417.84;;;19.96;48.23
1776;BME280;885;42.626;23.200;2023-04-23T10:30:08;148410.66;;;19.93;49.99
1776;BME280;885;42.626;23.200;2023-04-23T10:32:36;149962.16;;;20.14;51.32
1776;BME280;885;42.626;23.200;2023-04-23T10:35:07;148505.63;;;20.33;47.32
1776;BME280;885;42.626;23.200;2023-04-23T10:37:35;148557.34;;;20.54;46.30
1776;BME280;885;42.626;23.200;2023-04-23T10:40:05;147777.78;;;20.42;47.78
1776;BME280;885;42.626;23.200;2023-04-23T10:42:36;148159.09;;;20.45;48.96
1776;BME280;885;42.626;23.200;2023-04-23T10:45:11;147780.22;;;20.43;48.51
1776;BME280;885;42.626;23.200;2023-04-23T10:47:38;147422.78;;;20.51;48.09
1776;BME280;885;42.626;23.200;2023-04-23T10:50:22;147054.66;;;20.54;47.34
1776;BME280;885;42.626;23.200;2023-04-23T10:52:50;148217.84;;;20.70;48.74
1776;BME280;885;42.626;23.200;2023-04-23T10:55:19;147509.88;;;20.88;46.51
1776;BME280;885;42.626;23.200;2023-04-23T10:58:01;147945.28;;;21.13;46.52
1776;BME280;885;42.626;23.200;2023-04-23T11:00:41;147608.91;;;21.29;44.94
1776;BME280;885;42.626;23.200;2023-04-23T11:03:29;146095.34;;;21.25;44.71
1776;BME280;885;42.626;23.200;2023-04-23T11:06:00;143002.31;;;20.86;42.06
1776;BME280;885;42.626;23.200;2023-04-23T11:08:28;141879.41;;;20.87;42.22
1776;BME280;885;42.626;23.200;2023-04-23T11:10:57;139149.44;;;20.40;42.57
1776;BME280;885;42.626;23.200;2023-04-23T11:13:25;137530.66;;;19.85;44.26
1776;BME280;885;42.626;23.200;2023-04-23T11:16:11;136402.13;;;19.82;43.60
1776;BME280;885;42.626;23.200;2023-04-23T11:18:54;136813.59;;;19.99;42.92
1776;BME280;885;42.626;23.200;2023-04-23T11:21:54;134963.44;;;20.08;41.04
1776;BME280;885;42.626;23.200;2023-04-23T11:24:21;136556.34;;;20.52;40.94
1776;BME280;885;42.626;23.200;2023-04-23T11:26:50;137384.78;;;20.89;39.96
1776;BME280;885;42.626;23.200;2023-04-23T11:29:20;135936.97;;;21.12;38.38
1776;BME280;885;42.626;23.200;2023-04-23T11:31:48;127321.06;;;21.08;31.78
1776;BME280;885;42.626;23.200;2023-04-23T11:34:15;126269.72;;;21.43;32.94
1776;BME280;885;42.626;23.200;2023-04-23T11:36:44;127836.59;;;21.77;35.28
1776;BME280;885;42.626;23.200;2023-04-23T11:39:11;126356.97;;;21.86;33.62
1776;BME280;885;42.626;23.200;2023-04-23T11:41:38;126387.41;;;22.01;33.93
1776;BME280;885;42.626;23.200;2023-04-23T11:44:05;124541.28;;;22.13;33.77
1776;BME280;885;42.626;23.200;2023-04-23T11:46:34;125362.13;;;22.50;33.95
1776;BME280;885;42.626;23.200;2023-04-23T11:49:01;123076.25;;;22.30;33.70
1776;BME280;885;42.626;23.200;2023-04-23T11:51:28;118472.72;;;21.68;33.66
1776;BME280;885;42.626;23.200;2023-04-23T11:54:03;112024.34;;;21.35;32.35
1776;BME280;885;42.626;23.200;2023-04-23T11:56:30;107058.75;;;20.82;32.51
1776;BME280;885;42.626;23.200;2023-04-23T11:59:00;103653.75;;;20.40;32.33
1776;BME280;885;42.626;23.200;2023-04-23T12:01:43;98801.25;;;20.29;28.47
1776;BME280;885;42.626;23.200;2023-04-23T12:04:13;99914.69;;;20.26;31.15
1776;BME280;885;42.626;23.200;2023-04-23T12:06:41;99109.38;;;20.04;31.71
1776;BME280;885;42.626;23.200;2023-04-23T12:09:10;99362.09;;;20.16;32.71
1776;BME280;885;42.626;23.200;2023-04-23T12:11:38;99556.94;;;20.11;33.14
1776;BME280;885;42.626;23.200;2023-04-23T12:14:05;99014.81;;;20.18;32.28
1776;BME280;885;42.626;23.200;2023-04-23T12:16:34;98197.19;;;19.97;33.04
1776;BME280;885;42.626;23.200;2023-04-23T12:19:01;97241.94;;;20.02;32.04
1776;BME280;885;42.626;23.200;2023-04-23T12:21:28;96676.88;;;19.94;32.35
1776;BME280;885;42.626;23.200;2023-04-23T12:23:56;91784.09;;;18.80;30.27
1776;BME280;885;42.626;23.200;2023-04-23T12:26:25;89661.75;;;18.30;29.58
1776;BME280;885;42.626;23.200;2023-04-23T12:28:55;89898.81;;;18.22;31.08
1776;BME280;885;42.626;23.200;2023-04-23T12:31:25;89733.94;;;18.19;31.71
1776;BME280;885;42.626;23.200;2023-04-23T12:34:03;90245.19;;;18.22;32.91
1776;BME280;885;42.626;23.200;2023-04-23T12:36:31;89768.81;;;17.95;33.17
1776;BME280;885;42.626;23.200;2023-04-23T12:39:20;91382.03;;;17.80;38.55
1776;BME280;885;42.626;23.200;2023-04-23T12:41:50;92699.81;;;17.85;40.85
1776;BME280;885;42.626;23.200;2023-04-23T12:44:18;92132.75;;;18.01;38.39
1776;BME280;885;42.626;23.200;2023-04-23T12:46:45;92359.06;;;18.06;38.59
1776;BME280;885;42.626;23.200;2023-04-23T12:49:12;92760.09;;;18.20;38.64
1776;BME280;885;42.626;23.200;2023-04-23T12:51:38;93132.34;;;18.30;38.37
1776;BME280;885;42.626;23.200;2023-04-23T12:54:05;93331.72;;;18.40;38.71
1776;BME280;885;42.626;23.200;2023-04-23T12:56:32;93161.75;;;18.44;38.17
1776;BME280;885;42.626;23.200;2023-04-23T12:59:02;94190.97;;;18.75;37.52
1776;BME280;885;42.626;23.200;2023-04-23T13:01:29;95272.34;;;19.11;37.57
1776;BME280;885;42.626;23.200;2023-04-23T13:03:56;95954.88;;;19.38;36.71
1776;BME280;885;42.626;23.200;2023-04-23T13:06:23;95440.91;;;19.34;36.39
1776;BME280;885;42.626;23.200;2023-04-23T13:08:50;95577.81;;;19.39;36.97
1776;BME280;885;42.626;23.200;2023-04-23T13:11:18;95674.66;;;19.30;37.39
1776;BME280;885;42.626;23.200;2023-04-23T13:13:45;95263.22;;;19.14;37.91
1776;BME280;885;42.626;23.200;2023-04-23T13:16:13;95021.03;;;19.11;38.13